TimeCDT,TemperatureF,Dew PointF,Humidity,Sea Level PressureIn,VisibilityMPH,Wind Direction,Wind SpeedMPH,Gust SpeedMPH,PrecipitationIn,Events,Conditions,WindDirDegrees,DateUTC
12:53 AM,75.9,62.1,62,29.88,10.0,South,9.2,-,N/A,,Clear,170,2013-06-11 05:53:00
1:53 AM,75.9,60.1,58,29.89,10.0,South,8.1,-,N/A,,Clear,190,2013-06-11 06:53:00
2:53 AM,72.0,60.1,66,29.89,10.0,South,5.8,-,N/A,,Clear,190,2013-06-11 07:53:00
3:53 AM,72.0,59.0,64,29.88,10.0,South,6.9,-,N/A,,Clear,180,2013-06-11 08:53:00
4:53 AM,69.1,60.1,73,29.89,10.0,South,8.1,-,N/A,,Clear,170,2013-06-11 09:53:00
5:53 AM,66.0,60.1,81,29.91,10.0,Calm,Calm,-,N/A,,Clear,0,2013-06-11 10:53:00
6:53 AM,66.9,60.1,79,29.93,10.0,Calm,Calm,-,N/A,,Clear,0,2013-06-11 11:53:00
7:53 AM,73.0,62.1,68,29.94,10.0,South,5.8,-,N/A,,Clear,170,2013-06-11 12:53:00
8:53 AM,80.1,63.0,56,29.95,10.0,SSW,12.7,18.4,N/A,,Clear,200,2013-06-11 13:53:00
9:53 AM,86.0,64.9,49,29.94,10.0,South,15.0,-,N/A,,Clear,190,2013-06-11 14:53:00
10:53 AM,90.0,64.9,43,29.94,10.0,South,17.3,-,N/A,,Clear,180,2013-06-11 15:53:00
11:53 AM,91.9,59.0,33,29.94,10.0,SSW,15.0,23.0,N/A,,Clear,200,2013-06-11 16:53:00
12:53 PM,93.9,61.0,33,29.93,10.0,South,16.1,23.0,N/A,,Clear,190,2013-06-11 17:53:00
1:53 PM,93.9,60.1,32,29.91,10.0,SSW,17.3,23.0,N/A,,Clear,200,2013-06-11 18:53:00
2:53 PM,96.1,57.9,28,29.89,10.0,South,18.4,26.5,N/A,,Clear,180,2013-06-11 19:53:00
3:53 PM,96.1,59.0,29,29.88,10.0,South,16.1,29.9,N/A,,Clear,180,2013-06-11 20:53:00
4:53 PM,97.0,60.1,29,29.86,10.0,South,17.3,25.3,N/A,,Clear,180,2013-06-11 21:53:00
5:53 PM,96.1,61.0,31,29.84,10.0,South,17.3,24.2,N/A,,Clear,190,2013-06-11 22:53:00
6:53 PM,93.9,63.0,36,29.83,10.0,SSE,18.4,27.6,N/A,,Clear,160,2013-06-11 23:53:00
7:53 PM,91.0,64.9,42,29.83,10.0,SSE,13.8,23.0,N/A,,Clear,160,2013-06-12 00:53:00
8:53 PM,87.1,68.0,53,29.84,10.0,SSE,12.7,-,N/A,,Clear,160,2013-06-12 01:53:00
9:53 PM,84.0,68.0,58,29.86,10.0,SSE,9.2,-,N/A,,Clear,150,2013-06-12 02:53:00
10:53 PM,81.0,69.1,67,29.87,10.0,SSE,10.4,-,N/A,,Clear,160,2013-06-12 03:53:00
11:53 PM,79.0,69.1,72,29.87,10.0,SSE,13.8,-,N/A,,Clear,160,2013-06-12 04:53:00